Time;durP1;ratioP1;P1;durP2;ratioP2;P2;SDS_P1;SDS_P2;PMS_P1;PMS_P2;Temp;Humidity;BMP_temperature;BMP_pressure;BME280_temperature;BME280_humidity;BME280_pressure;Samples;Min_cycle;Max_cycle;Signal;HPM_P1;HPM_P2
2022/03/28 00:01:52;;;;;;;2.72;1.85;;;;;;;4.76;50.50;97493.61;1736059;83;21118;-78
2022/03/28 00:04:19;;;;;;;2.75;1.70;;;;;;;4.77;50.56;97491.38;1735325;82;22059;-77
2022/03/28 00:06:45;;;;;;;4.40;1.85;;;;;;;4.75;50.78;97488.11;1755006;81;21015;-77
2022/03/28 00:09:11;;;;;;;2.77;1.87;;;;;;;4.74;50.63;97487.77;1743841;81;21415;-77
2022/03/28 00:11:37;;;;;;;2.60;1.82;;;;;;;4.75;50.69;97487.30;1735868;81;21059;-77
2022/03/28 00:14:03;;;;;;;3.17;1.98;;;;;;;4.73;50.55;97479.69;1736099;81;20982;-78
2022/03/28 00:16:29;;;;;;;2.47;2.00;;;;;;;4.73;50.66;97479.69;1738939;81;21016;-77
2022/03/28 00:18:55;;;;;;;2.45;1.70;;;;;;;4.75;50.92;97476.53;1742920;82;20963;-77
2022/03/28 00:21:21;;;;;;;9.90;3.58;;;;;;;4.74;50.86;97475.36;1736010;81;21023;-77
2022/03/28 00:23:47;;;;;;;3.17;2.10;;;;;;;4.73;50.86;97468.11;1736073;82;20973;-77
2022/03/28 00:26:12;;;;;;;3.42;1.98;;;;;;;4.74;50.78;97463.30;1736076;82;21051;-77
2022/03/28 00:28:39;;;;;;;2.92;2.15;;;;;;;4.75;50.92;97456.40;1735653;82;21040;-77
2022/03/28 00:31:05;;;;;;;3.00;2.10;;;;;;;4.75;50.95;97449.49;1736171;82;20977;-77
2022/03/28 00:33:31;;;;;;;4.10;1.92;;;;;;;4.78;51.09;97447.14;1735672;82;20992;-77
2022/03/28 00:35:57;;;;;;;5.10;2.58;;;;;;;4.79;51.36;97447.02;1721088;82;21014;-77
2022/03/28 00:38:22;;;;;;;3.95;2.67;;;;;;;4.79;51.37;97450.88;1736016;83;21294;-77
2022/03/28 00:40:49;;;;;;;3.37;2.20;;;;;;;4.82;51.46;97443.38;1739600;81;21375;-77
2022/03/28 00:43:15;;;;;;;3.95;2.37;;;;;;;4.82;51.41;97440.34;1748292;81;20983;-77
2022/03/28 00:45:41;;;;;;;2.52;2.02;;;;;;;4.84;51.36;97438.92;1748377;82;20948;-77
2022/03/28 00:48:08;;;;;;;3.37;2.25;;;;;;;4.87;50.86;97430.95;1748045;82;21463;-77
2022/03/28 00:50:35;;;;;;;3.65;2.27;;;;;;;4.90;51.46;97429.45;1735643;83;20995;-77
2022/03/28 00:53:00;;;;;;;2.30;2.00;;;;;;;4.92;51.32;97425.47;1735628;81;21429;-77
2022/03/28 00:55:26;;;;;;;3.58;2.05;;;;;;;4.95;51.26;97418.78;1736281;82;21048;-77
2022/03/28 00:57:53;;;;;;;2.95;2.30;;;;;;;4.96;51.40;97417.84;1735952;82;20976;-78
2022/03/28 01:00:18;;;;;;;3.27;1.80;;;;;;;4.97;51.12;97422.86;1736107;82;20972;-77
2022/03/28 01:02:45;;;;;;;2.35;1.67;;;;;;;4.99;51.31;97415.02;1736025;81;21082;-77
2022/03/28 01:05:12;;;;;;;3.72;1.98;;;;;;;4.99;51.32;97415.02;1738041;81;20933;-77
2022/03/28 01:07:39;;;;;;;2.90;2.05;;;;;;;4.99;50.93;97405.53;1746091;81;21039;-77
2022/03/28 01:10:08;;;;;;;3.15;2.10;;;;;;;5.00;50.93;97412.31;1748313;82;21072;-77
2022/03/28 01:12:34;;;;;;;2.40;1.98;;;;;;;5.00;50.88;97404.59;1747866;81;20972;-77
2022/03/28 01:15:00;;;;;;;3.33;1.90;;;;;;;5.04;50.62;97403.42;1743240;81;21027;-77
2022/03/28 01:20:11;;;;;;;3.77;1.87;;;;;;;5.07;50.96;97393.34;1747069;81;21005;-77
2022/03/28 01:22:37;;;;;;;2.72;2.00;;;;;;;5.07;51.29;97391.58;1745254;81;20972;-78
2022/03/28 01:25:05;;;;;;;2.52;1.90;;;;;;;5.07;51.10;97385.61;1735950;81;21324;-77
2022/03/28 01:27:32;;;;;;;3.52;1.90;;;;;;;5.09;50.96;97392.27;1736014;82;20968;-78
2022/03/28 01:29:58;;;;;;;2.85;2.27;;;;;;;5.09;50.45;97386.30;1735745;83;21142;-77
2022/03/28 01:32:23;;;;;;;3.22;2.02;;;;;;;5.10;50.67;97395.20;1735949;82;21479;-77
2022/03/28 01:34:49;;;;;;;3.70;2.40;;;;;;;5.09;50.74;97383.73;1735983;82;21048;-77
2022/03/28 01:37:15;;;;;;;2.62;2.22;;;;;;;5.09;50.95;97387.59;1736026;82;21048;-78
2022/03/28 01:39:40;;;;;;;2.70;2.15;;;;;;;5.09;50.83;97394.85;1737520;81;21104;-77
2022/03/28 01:42:07;;;;;;;3.05;2.05;;;;;;;5.07;50.87;97386.43;1766288;81;21391;-77
2022/03/28 01:44:33;;;;;;;3.22;2.25;;;;;;;5.08;50.99;97387.25;1766574;81;21016;-77
2022/03/28 01:46:58;;;;;;;3.33;2.05;;;;;;;5.06;51.22;97386.09;1766228;81;21036;-77
2022/03/28 01:49:24;;;;;;;3.22;2.45;;;;;;;5.05;50.88;97382.34;1749948;81;20941;-77
2022/03/28 01:51:50;;;;;;;4.17;2.77;;;;;;;5.02;51.42;97383.38;1748386;82;20981;-77
2022/03/28 01:54:16;;;;;;;3.27;2.17;;;;;;;5.01;51.25;97378.36;1748444;82;20996;-77
2022/03/28 01:56:42;;;;;;;2.62;2.33;;;;;;;4.99;50.70;97380.24;1747007;81;21443;-77
2022/03/28 01:59:08;;;;;;;4.10;2.50;;;;;;;4.98;51.08;97382.47;1734114;82;20949;-77
2022/03/28 02:01:34;;;;;;;4.25;2.20;;;;;;;4.96;51.40;97374.05;1736024;83;21072;-77
2022/03/28 02:04:00;;;;;;;3.83;2.15;;;;;;;4.95;51.75;97373.70;1736110;82;21060;-77
2022/03/28 02:06:26;;;;;;;3.98;1.95;;;;;;;4.95;51.49;97369.84;1752274;81;21440;-77
2022/03/28 02:08:53;;;;;;;2.95;1.87;;;;;;;4.93;51.74;97367.39;1686393;85;21124;-77
2022/03/28 02:11:19;;;;;;;3.60;2.22;;;;;;;4.92;51.93;97364.95;1762772;81;21056;-77
2022/03/28 02:13:44;;;;;;;3.75;1.87;;;;;;;4.92;51.75;97364.95;1735820;82;21478;-77
2022/03/28 02:16:10;;;;;;;4.17;2.02;;;;;;;4.93;51.62;97360.95;1734431;82;21072;-77
2022/03/28 02:18:38;;;;;;;4.03;2.40;;;;;;;4.94;51.52;97358.72;1733131;81;21066;-77
2022/03/28 02:21:05;;;;;;;3.35;1.65;;;;;;;4.95;51.62;97359.55;1733410;81;21059;-77
2022/03/28 02:23:31;;;;;;;3.40;2.00;;;;;;;4.96;51.18;97358.59;1733416;82;20984;-77
2022/03/28 02:25:56;;;;;;;2.80;2.20;;;;;;;4.97;51.24;97357.66;1733355;82;21380;-77
2022/03/28 02:28:22;;;;;;;3.37;2.50;;;;;;;4.96;51.42;97349.11;1733522;82;21339;-77
2022/03/28 02:30:48;;;;;;;2.10;1.77;;;;;;;4.98;51.72;97347.23;1733627;82;20965;-77
2022/03/28 02:33:14;;;;;;;5.10;2.85;;;;;;;4.99;51.92;97342.89;1733495;82;21060;-77
2022/03/28 02:35:41;;;;;;;4.33;2.98;;;;;;;4.99;51.67;97342.89;1733468;82;20949;-77
2022/03/28 02:38:07;;;;;;;2.72;2.00;;;;;;;4.99;51.71;97345.47;1733554;82;20960;-77
2022/03/28 02:40:33;;;;;;;2.72;2.30;;;;;;;5.01;51.16;97342.30;1733391;82;21306;-78
2022/03/28 02:42:59;;;;;;;3.65;2.33;;;;;;;5.04;51.00;97343.33;1733485;83;21064;-77
2022/03/28 02:45:27;;;;;;;5.08;2.60;;;;;;;5.06;50.82;97335.04;1733483;81;21426;-77
2022/03/28 02:47:53;;;;;;;3.00;2.02;;;;;;;5.09;50.95;97336.07;1733234;82;21087;-77
2022/03/28 02:50:19;;;;;;;4.47;1.95;;;;;;;5.09;51.08;97330.45;1732047;82;21435;-77
2022/03/28 02:52:44;;;;;;;3.08;2.37;;;;;;;5.09;51.01;97336.07;1737689;81;20941;-77
2022/03/28 02:55:11;;;;;;;2.85;2.00;;;;;;;5.10;50.83;97333.84;1756831;81;20977;-77
2022/03/28 02:57:37;;;;;;;4.00;2.15;;;;;;;5.12;50.47;97333.23;1745750;81;20996;-77
2022/03/28 03:00:08;;;;;;;3.10;2.05;;;;;;;5.11;50.61;97332.42;1746666;82;21355;-77
2022/03/28 03:02:36;;;;;;;3.80;2.30;;;;;;;5.12;50.27;97328.91;1745671;81;21328;-77
2022/03/28 03:05:03;;;;;;;2.45;1.90;;;;;;;5.14;50.53;97330.06;1745610;81;22271;-77
2022/03/28 03:07:29;;;;;;;3.17;2.15;;;;;;;5.12;50.30;97330.66;1736626;81;21408;-77
2022/03/28 03:09:55;;;;;;;4.47;3.52;;;;;;;5.11;50.33;97330.32;1742124;81;21334;-77
2022/03/28 03:12:21;;;;;;;3.77;2.37;;;;;;;5.08;50.13;97328.00;1740838;81;21052;-77
2022/03/28 03:14:47;;;;;;;4.15;2.35;;;;;;;5.09;50.46;97327.05;1735069;81;20996;-77
2022/03/28 03:17:12;;;;;;;3.98;2.92;;;;;;;5.07;50.78;97323.31;1733484;82;21494;-77
2022/03/28 03:19:40;;;;;;;2.90;2.52;;;;;;;5.05;50.89;97329.54;1733366;81;21157;-77
2022/03/28 03:22:09;;;;;;;3.65;2.67;;;;;;;5.02;50.96;97322.03;1737465;81;20980;-77
2022/03/28 03:24:35;;;;;;;3.12;2.45;;;;;;;5.06;50.75;97319.58;1745677;82;20968;-77
2022/03/28 03:27:01;;;;;;;3.55;2.67;;;;;;;5.08;50.76;97315.94;1745626;81;20975;-77
2022/03/28 03:29:27;;;;;;;3.95;2.80;;;;;;;5.08;50.89;97318.51;1745803;81;20976;-78
2022/03/28 03:31:53;;;;;;;4.50;2.45;;;;;;;5.11;51.10;97316.15;1745847;82;21111;-77
2022/03/28 03:34:19;;;;;;;3.95;2.90;;;;;;;5.11;50.57;97313.58;1745553;81;21384;-77
2022/03/28 03:36:45;;;;;;;4.75;3.72;;;;;;;5.10;51.09;97317.09;1745610;82;21052;-77
2022/03/28 03:39:11;;;;;;;5.80;3.02;;;;;;;5.08;50.87;97309.49;1745848;81;21064;-77
2022/03/28 03:41:37;;;;;;;5.92;4.17;;;;;;;5.08;51.50;97312.55;1745569;82;21020;-77
2022/03/28 03:44:03;;;;;;;4.78;3.40;;;;;;;5.05;50.10;97311.04;1745710;82;21372;-77
2022/03/28 03:46:29;;;;;;;4.78;3.87;;;;;;;5.10;50.37;97311.47;1745595;82;20984;-77
2022/03/28 03:48:55;;;;;;;4.25;3.35;;;;;;;5.12;50.01;97309.58;1735808;82;21025;-77
2022/03/28 03:51:20;;;;;;;2.90;2.42;;;;;;;5.21;49.92;97309.79;1728633;83;21030;-77
2022/03/28 03:53:46;;;;;;;4.28;2.22;;;;;;;5.24;50.28;97314.22;1732377;81;20962;-77
2022/03/28 03:56:12;;;;;;;3.42;2.50;;;;;;;5.23;50.58;97310.48;1746341;81;21466;-77
2022/03/28 03:58:38;;;;;;;3.20;2.20;;;;;;;5.19;50.46;97305.20;1763520;81;20973;-77
2022/03/28 04:01:04;;;;;;;5.37;2.65;;;;;;;5.18;50.50;97304.39;1749722;81;20937;-77
2022/03/28 04:03:29;;;;;;;8.13;4.28;;;;;;;5.22;50.19;97308.38;1725275;82;21011;-77
2022/03/28 04:05:55;;;;;;;4.03;3.02;;;;;;;5.21;50.42;97304.64;1735806;81;20945;-77
2022/03/28 04:08:21;;;;;;;5.17;2.98;;;;;;;5.15;50.82;97301.25;1738123;81;21463;-77
2022/03/28 04:10:47;;;;;;;6.37;5.37;;;;;;;5.17;50.69;97307.91;1763599;81;20961;-77
2022/03/28 04:13:13;;;;;;;4.83;2.80;;;;;;;5.17;49.81;97309.67;1754963;81;21000;-77
2022/03/28 04:15:40;;;;;;;3.95;2.70;;;;;;;5.18;49.67;97306.16;1736034;82;21028;-77
2022/03/28 04:18:06;;;;;;;3.98;2.37;;;;;;;5.21;50.07;97306.73;1754078;81;21453;-77
2022/03/28 04:20:32;;;;;;;3.35;2.92;;;;;;;5.19;49.79;97299.58;1708181;83;20980;-77
2022/03/28 04:22:58;;;;;;;3.87;2.62;;;;;;;5.25;49.97;97305.54;1709875;81;20933;-77
2022/03/28 04:25:24;;;;;;;3.08;2.22;;;;;;;5.29;49.50;97300.47;1741298;81;21051;-77
2022/03/28 04:27:50;;;;;;;4.30;2.30;;;;;;;5.32;49.81;97303.27;1745862;81;21012;-78
2022/03/28 04:30:16;;;;;;;4.15;3.02;;;;;;;5.35;49.50;97302.53;1743954;81;20933;-77
2022/03/28 04:32:42;;;;;;;6.53;3.47;;;;;;;5.36;49.25;97302.06;1732232;82;20988;-77
2022/03/28 04:35:08;;;;;;;4.62;3.67;;;;;;;5.39;49.37;97297.49;1751346;81;20936;-77
2022/03/28 04:37:35;;;;;;;4.15;3.10;;;;;;;5.39;49.26;97297.97;1747779;82;21952;-77
2022/03/28 04:40:02;;;;;;;4.08;3.08;;;;;;;5.37;49.82;97293.41;1745558;82;21010;-77
2022/03/28 04:42:28;;;;;;;3.65;2.90;;;;;;;5.34;49.49;97297.03;1751391;82;21045;-77
2022/03/28 04:44:54;;;;;;;4.62;3.22;;;;;;;5.34;49.18;97290.59;1748078;81;21003;-78
2022/03/28 04:47:20;;;;;;;4.53;3.08;;;;;;;5.38;49.03;97297.15;1744151;82;21024;-77
2022/03/28 04:49:45;;;;;;;4.67;3.00;;;;;;;5.43;48.82;97292.42;1736111;81;21095;-77
2022/03/28 04:52:11;;;;;;;5.12;2.90;;;;;;;5.49;49.23;97295.42;1732327;81;21106;-77
2022/03/28 04:54:37;;;;;;;5.20;3.10;;;;;;;5.55;48.97;97291.06;1733378;82;21488;-77
2022/03/28 04:57:04;;;;;;;7.30;5.10;;;;;;;5.60;49.55;97292.77;1736885;81;21029;-77
2022/03/28 04:59:31;;;;;;;7.97;5.58;;;;;;;5.63;48.62;97291.22;1748373;81;21436;-77
2022/03/28 05:01:58;;;;;;;7.00;5.37;;;;;;;5.66;48.85;97282.75;1754102;80;21040;-77
2022/03/28 05:04:23;;;;;;;5.70;4.37;;;;;;;5.69;48.35;97279.94;1744165;81;21016;-78
2022/03/28 05:06:49;;;;;;;5.20;3.67;;;;;;;5.82;48.33;97282.75;1751331;81;20901;-77
2022/03/28 05:09:15;;;;;;;6.12;4.03;;;;;;;5.90;48.03;97274.75;1743629;82;20961;-77
2022/03/28 05:11:42;;;;;;;8.90;4.15;;;;;;;5.99;48.11;97277.00;1739453;81;20954;-78
2022/03/28 05:14:08;;;;;;;5.67;3.85;;;;;;;6.04;48.27;97276.16;1750753;81;21004;-79
2022/03/28 05:16:35;;;;;;;6.62;4.08;;;;;;;6.06;48.90;97273.44;1746049;81;20961;-78
2022/03/28 05:19:00;;;;;;;5.12;2.98;;;;;;;6.09;48.53;97277.86;1735517;81;20981;-78
2022/03/28 05:21:26;;;;;;;8.60;4.35;;;;;;;6.11;49.32;97271.27;1685695;84;21396;-78
2022/03/28 05:23:52;;;;;;;6.40;3.70;;;;;;;6.13;48.79;97282.28;1762312;81;21270;-78
2022/03/28 05:26:18;;;;;;;7.62;4.35;;;;;;;6.16;48.27;97270.39;1749705;81;21019;-78
2022/03/28 05:28:43;;;;;;;7.28;3.98;;;;;;;6.34;47.47;97273.95;1764020;81;20988;-78
2022/03/28 05:31:09;;;;;;;6.03;3.77;;;;;;;6.51;47.35;97277.20;1761140;81;20929;-78
2022/03/28 05:33:35;;;;;;;4.60;3.27;;;;;;;6.58;47.95;97274.41;1753663;81;20976;-78
2022/03/28 05:36:01;;;;;;;5.83;4.35;;;;;;;6.56;47.85;97275.03;1760406;81;20980;-78
2022/03/28 05:38:26;;;;;;;5.95;3.85;;;;;;;6.59;47.36;97273.94;1754789;81;20943;-78
2022/03/28 05:40:52;;;;;;;6.90;3.72;;;;;;;6.66;47.72;97275.02;1733733;82;21659;-79
2022/03/28 05:43:18;;;;;;;6.33;3.55;;;;;;;6.69;48.10;97272.19;1733545;83;20990;-78
2022/03/28 05:45:44;;;;;;;6.15;3.33;;;;;;;6.71;46.76;97275.45;1733670;83;20959;-78
2022/03/28 05:48:09;;;;;;;6.37;3.47;;;;;;;6.77;47.31;97271.49;1733485;82;21081;-78
2022/03/28 05:50:35;;;;;;;4.60;3.10;;;;;;;6.78;47.94;97264.08;1747530;81;21446;-78
2022/03/28 05:53:01;;;;;;;6.67;3.90;;;;;;;6.77;48.24;97265.84;1758299;81;21363;-78
2022/03/28 05:55:27;;;;;;;4.87;3.87;;;;;;;6.79;47.74;97272.17;1755698;81;20937;-78
2022/03/28 05:57:53;;;;;;;4.70;3.12;;;;;;;6.79;48.73;97263.94;1754229;81;21031;-78
2022/03/28 06:00:20;;;;;;;6.75;3.83;;;;;;;6.75;48.25;97265.65;1753253;80;21020;-78
2022/03/28 06:02:46;;;;;;;4.22;3.35;;;;;;;6.75;48.73;97269.52;1681475;83;21394;-78
2022/03/28 06:05:12;;;;;;;5.90;3.58;;;;;;;6.78;49.04;97271.36;1758189;81;21009;-78
2022/03/28 06:07:37;;;;;;;5.42;3.17;;;;;;;6.79;49.03;97269.59;1758350;81;21033;-78
2022/03/28 06:10:04;;;;;;;4.62;3.12;;;;;;;6.83;49.33;97270.94;1759971;81;21011;-78
2022/03/28 06:12:30;;;;;;;6.12;3.60;;;;;;;6.86;49.62;97268.11;1715138;83;21029;-78
2022/03/28 06:14:56;;;;;;;5.65;3.87;;;;;;;6.88;49.28;97268.30;1758145;81;21028;-78
2022/03/28 06:17:23;;;;;;;5.70;4.12;;;;;;;6.92;49.19;97263.67;1747898;81;21545;-78
2022/03/28 06:19:48;;;;;;;6.08;4.03;;;;;;;7.03;49.08;97270.47;1754721;81;21052;-78
2022/03/28 06:22:14;;;;;;;7.22;3.60;;;;;;;7.21;48.19;97269.62;1749310;81;21040;-78
2022/03/28 06:24:40;;;;;;;8.33;3.95;;;;;;;7.38;48.91;97263.40;1752140;81;20973;-78
2022/03/28 06:27:06;;;;;;;6.15;3.92;;;;;;;7.49;48.95;97260.66;1748864;81;21036;-78
2022/03/28 06:29:32;;;;;;;4.80;3.45;;;;;;;7.61;48.93;97259.50;1767092;81;21328;-78
2022/03/28 06:31:57;;;;;;;5.85;4.10;;;;;;;7.72;49.05;97248.17;1767067;81;21084;-79
2022/03/28 06:34:23;;;;;;;4.65;3.75;;;;;;;7.83;48.73;97252.69;1762473;81;21024;-78
2022/03/28 06:36:49;;;;;;;5.17;3.72;;;;;;;7.97;48.06;97246.23;1738354;81;21367;-78
2022/03/28 06:39:15;;;;;;;6.58;4.45;;;;;;;8.15;47.71;97246.27;1746585;81;21024;-78
2022/03/28 06:41:41;;;;;;;6.72;4.37;;;;;;;8.33;47.28;97241.92;1740879;81;21040;-81
2022/03/28 06:44:13;;;;;;;6.78;4.70;;;;;;;8.53;46.99;97243.92;1737032;81;21000;-78
2022/03/28 06:46:40;;;;;;;8.75;4.92;;;;;;;8.70;47.29;97243.59;1746677;81;20973;-78
2022/03/28 06:49:07;;;;;;;6.95;5.12;;;;;;;8.88;46.68;97244.39;1735488;82;21024;-78
2022/03/28 06:51:33;;;;;;;9.53;6.30;;;;;;;9.03;46.84;97241.59;1732307;81;21016;-78
2022/03/28 06:54:00;;;;;;;6.95;4.80;;;;;;;9.20;46.16;97240.41;1733245;83;21004;-78
2022/03/28 06:56:25;;;;;;;7.45;4.53;;;;;;;9.36;45.27;97239.70;1733742;81;21411;-78
2022/03/28 06:58:52;;;;;;;7.90;5.08;;;;;;;9.51;45.63;97238.98;1733540;81;20944;-78
2022/03/28 07:01:18;;;;;;;8.33;5.03;;;;;;;9.63;45.26;97232.56;1746669;80;20988;-78
2022/03/28 07:03:44;;;;;;;6.80;4.87;;;;;;;9.75;44.99;97243.95;1751374;81;21375;-78
2022/03/28 07:06:09;;;;;;;7.25;4.72;;;;;;;9.85;44.57;97237.69;1734994;81;20909;-79
2022/03/28 07:08:36;;;;;;;9.25;4.90;;;;;;;9.99;45.19;97234.17;1732253;81;21035;-79
2022/03/28 07:11:03;;;;;;;9.50;4.60;;;;;;;10.11;45.04;97230.33;1737665;81;20996;-79
2022/03/28 07:13:29;;;;;;;6.67;4.60;;;;;;;10.22;44.84;97222.25;1736842;81;21370;-79
2022/03/28 07:15:54;;;;;;;7.28;4.85;;;;;;;10.33;44.13;97224.55;1745914;82;20932;-79
2022/03/28 07:18:21;;;;;;;8.68;4.90;;;;;;;10.47;43.96;97217.92;1744868;82;21043;-79
2022/03/28 07:20:47;;;;;;;9.23;4.83;;;;;;;10.58;43.52;97223.31;1739809;81;21695;-79
2022/03/28 07:23:13;;;;;;;8.20;4.90;;;;;;;10.67;43.79;97214.04;1737856;81;21031;-79
2022/03/28 07:25:40;;;;;;;7.03;4.67;;;;;;;10.77;43.04;97209.51;1753139;81;21000;-78
2022/03/28 07:28:10;;;;;;;5.80;4.72;;;;;;;10.87;42.97;97208.52;1740582;81;20980;-78
2022/03/28 07:30:36;;;;;;;8.10;4.95;;;;;;;10.94;42.79;97210.31;1747934;81;21092;-78
2022/03/28 07:33:03;;;;;;;8.23;4.80;;;;;;;11.04;42.48;97207.52;1757596;81;21043;-79
2022/03/28 07:35:32;;;;;;;7.15;5.03;;;;;;;11.12;42.60;97206.23;1740495;81;21072;-79
2022/03/28 07:37:59;;;;;;;9.25;5.60;;;;;;;11.21;41.92;97195.31;1746785;81;20977;-79
2022/03/28 07:40:25;;;;;;;10.23;5.08;;;;;;;11.31;42.03;97202.45;1729366;81;20993;-79
2022/03/28 07:42:53;;;;;;;8.63;6.03;;;;;;;11.41;42.12;97192.19;1751281;81;20957;-78
2022/03/28 07:45:19;;;;;;;7.67;6.17;;;;;;;11.52;41.76;97194.09;1745363;81;20977;-79
2022/03/28 07:47:45;;;;;;;11.38;6.75;;;;;;;11.62;42.02;97185.61;1742597;81;21015;-78
2022/03/28 07:50:11;;;;;;;9.88;6.25;;;;;;;11.71;41.98;97189.34;1758337;81;20976;-79
2022/03/28 07:52:38;;;;;;;9.88;6.35;;;;;;;11.80;41.75;97189.31;1761581;81;21008;-80
2022/03/28 07:55:05;;;;;;;8.88;6.10;;;;;;;11.90;41.77;97184.72;1745711;81;21028;-79
2022/03/28 07:57:31;;;;;;;9.43;5.80;;;;;;;11.98;41.67;97182.06;1735430;81;21020;-79
2022/03/28 07:59:58;;;;;;;9.13;7.03;;;;;;;12.05;41.40;97181.72;1739202;81;21431;-79
2022/03/28 08:02:24;;;;;;;8.75;7.08;;;;;;;12.13;41.33;97176.94;1739941;81;20929;-79
2022/03/28 08:04:50;;;;;;;9.63;7.25;;;;;;;12.17;41.25;97176.42;1736933;81;20968;-80
2022/03/28 08:07:15;;;;;;;12.43;8.18;;;;;;;12.23;41.57;97174.94;1734625;81;21369;-82
2022/03/28 08:09:41;;;;;;;12.53;8.05;;;;;;;12.30;41.21;97170.16;1733611;82;21010;-79
2022/03/28 08:12:09;;;;;;;13.62;8.65;;;;;;;12.36;41.62;97177.76;1733361;81;21018;-79
2022/03/28 08:14:35;;;;;;;11.85;8.33;;;;;;;12.39;42.02;97176.13;1733480;81;21016;-80
2022/03/28 08:17:01;;;;;;;12.68;8.30;;;;;;;12.44;41.76;97179.52;1732782;81;20953;-80
2022/03/28 08:19:26;;;;;;;12.90;8.30;;;;;;;12.48;41.99;97169.05;1740557;81;21020;-79
2022/03/28 08:21:52;;;;;;;12.00;7.80;;;;;;;12.53;41.89;97164.95;1741509;81;21036;-78
2022/03/28 08:24:18;;;;;;;11.33;8.48;;;;;;;12.62;41.80;97157.37;1733337;81;21378;-79
2022/03/28 08:26:46;;;;;;;11.65;8.00;;;;;;;12.73;42.16;97161.38;1738046;81;21071;-79
2022/03/28 08:29:13;;;;;;;11.20;8.60;;;;;;;12.80;41.97;97153.64;1748165;82;20913;-79
2022/03/28 08:31:39;;;;;;;12.13;8.78;;;;;;;12.86;41.71;97156.86;1748105;82;20956;-79
2022/03/28 08:34:05;;;;;;;11.05;8.13;;;;;;;12.90;42.66;97147.69;1748117;82;21027;-79
2022/03/28 08:36:30;;;;;;;11.25;8.68;;;;;;;12.99;42.46;97145.30;1747321;81;20949;-79
2022/03/28 08:38:56;;;;;;;12.63;8.28;;;;;;;13.04;42.48;97146.91;1739933;81;21377;-79
2022/03/28 08:41:25;;;;;;;11.10;8.38;;;;;;;13.10;42.64;97137.05;1746426;81;21280;-79
2022/03/28 08:43:51;;;;;;;12.00;8.38;;;;;;;13.13;42.51;97131.47;1747437;81;20980;-79
2022/03/28 08:46:17;;;;;;;13.30;8.40;;;;;;;13.23;42.99;97121.30;1746618;81;20968;-79
2022/03/28 08:48:43;;;;;;;11.28;8.28;;;;;;;13.32;42.44;97111.87;1745493;81;21133;-79
2022/03/28 08:51:11;;;;;;;13.15;8.63;;;;;;;13.38;42.55;97115.59;1735613;81;21032;-79
2022/03/28 08:53:38;;;;;;;11.12;7.50;;;;;;;13.45;42.19;97109.94;1746502;81;21039;-79
2022/03/28 08:56:05;;;;;;;10.38;7.72;;;;;;;13.53;42.30;97103.83;1752600;81;21417;-79
2022/03/28 08:58:31;;;;;;;10.70;7.70;;;;;;;13.60;42.16;97096.87;1745124;81;20969;-79
2022/03/28 09:00:56;;;;;;;9.63;6.37;;;;;;;13.68;42.43;97102.81;1744246;81;20977;-79
2022/03/28 09:03:44;;;;;;;8.80;6.40;;;;;;;13.74;42.10;97098.64;1735928;81;20986;-79
2022/03/28 09:06:31;;;;;;;10.13;7.37;;;;;;;13.84;42.65;97092.64;1747711;81;21044;-79
2022/03/28 09:09:21;;;;;;;9.63;6.67;;;;;;;13.92;42.43;97087.78;1765957;81;21023;-79
2022/03/28 09:11:53;;;;;;;7.55;6.35;;;;;;;13.97;40.97;97085.41;1686540;85;21056;-79
2022/03/28 09:14:30;;;;;;;9.83;5.85;;;;;;;13.99;41.00;97088.65;1692052;84;20953;-79
2022/03/28 09:17:13;;;;;;;9.00;6.15;;;;;;;13.99;41.62;97078.20;1720625;82;21007;-79
2022/03/28 09:20:02;;;;;;;10.25;5.80;;;;;;;14.03;41.85;97079.47;1745584;81;21054;-79
2022/03/28 09:22:30;;;;;;;7.45;5.50;;;;;;;14.12;42.24;97081.75;1758698;81;20996;-79
2022/03/28 09:24:59;;;;;;;8.40;6.10;;;;;;;14.25;41.74;97077.65;1763487;81;20977;-79
2022/03/28 09:27:28;;;;;;;10.60;6.17;;;;;;;14.30;40.69;97074.77;1763607;81;21033;-79
2022/03/28 09:30:04;;;;;;;8.80;6.10;;;;;;;14.31;40.13;97071.16;1763101;81;21052;-79
2022/03/28 09:32:49;;;;;;;7.75;5.97;;;;;;;14.34;40.52;97072.12;1763533;81;20973;-79
2022/03/28 09:35:23;;;;;;;7.78;5.50;;;;;;;14.38;40.61;97060.78;1763693;81;21008;-79
2022/03/28 09:38:08;;;;;;;7.83;5.80;;;;;;;14.49;41.88;97064.73;1763554;81;21426;-79
2022/03/28 09:40:51;;;;;;;10.30;6.10;;;;;;;14.59;39.96;97058.65;1763562;81;21076;-79
2022/03/28 09:43:27;;;;;;;7.42;5.12;;;;;;;14.59;39.48;97054.73;1763430;81;21393;-79
2022/03/28 09:45:57;;;;;;;7.83;5.60;;;;;;;14.63;40.06;97047.61;1763648;81;20969;-79
2022/03/28 09:48:26;;;;;;;7.10;4.70;;;;;;;14.73;40.26;97038.63;1763038;80;20934;-79
2022/03/28 09:51:00;;;;;;;9.43;5.72;;;;;;;14.80;39.46;97027.70;1763228;81;21056;-79
2022/03/28 09:53:32;;;;;;;7.05;5.60;;;;;;;14.86;39.64;97029.56;1763449;81;21025;-79
2022/03/28 09:56:07;;;;;;;9.18;6.08;;;;;;;14.90;40.04;97021.13;1763583;81;20960;-79
2022/03/28 09:58:46;;;;;;;7.22;5.78;;;;;;;14.94;39.76;97026.27;1763530;81;21039;-79
2022/03/28 10:01:24;;;;;;;7.67;5.72;;;;;;;14.99;39.74;97022.59;1743607;81;21004;-79
2022/03/28 10:03:53;;;;;;;8.50;5.72;;;;;;;15.06;39.66;97013.45;1758134;81;21052;-79
2022/03/28 10:06:20;;;;;;;7.58;5.55;;;;;;;15.15;39.60;96998.41;1751724;81;21007;-79
2022/03/28 10:08:45;;;;;;;8.25;4.72;;;;;;;15.19;39.37;97001.74;1745947;81;20999;-78
2022/03/28 10:11:11;;;;;;;6.92;5.70;;;;;;;15.33;39.18;97003.11;1744642;82;20995;-79
2022/03/28 10:13:38;;;;;;;9.20;6.22;;;;;;;15.37;39.55;97003.81;1744332;81;21025;-79
2022/03/28 10:16:06;;;;;;;7.90;5.85;;;;;;;15.41;38.47;97001.11;1728549;83;21054;-79
2022/03/28 10:18:35;;;;;;;9.38;5.60;;;;;;;15.44;38.38;96999.90;1733601;81;21369;-79
2022/03/28 10:21:31;;;;;;;6.65;5.25;;;;;;;15.49;38.47;97005.37;1758643;81;21064;-79
2022/03/28 10:24:22;;;;;;;8.03;5.55;;;;;;;15.60;37.99;96993.02;1758967;81;21387;-79
2022/03/28 10:26:54;;;;;;;7.80;5.12;;;;;;;15.71;38.12;96992.45;1746767;81;20993;-79
2022/03/28 10:29:22;;;;;;;6.72;5.35;;;;;;;15.79;38.14;96983.11;1763448;81;21003;-79
2022/03/28 10:31:57;;;;;;;8.33;5.28;;;;;;;15.84;38.26;96987.73;1763366;81;21467;-79
2022/03/28 10:34:56;;;;;;;6.83;4.90;;;;;;;15.95;38.30;96987.16;1763462;81;21052;-79
2022/03/28 10:37:32;;;;;;;7.97;5.60;;;;;;;16.03;38.03;96978.28;1763110;81;21112;-79
2022/03/28 10:40:22;;;;;;;6.83;5.45;;;;;;;16.08;38.60;96973.23;1763505;81;21003;-79
2022/03/28 10:43:09;;;;;;;6.20;4.67;;;;;;;16.18;38.21;96974.95;1763483;81;20930;-79
2022/03/28 10:45:56;;;;;;;7.97;5.17;;;;;;;16.28;38.17;96973.25;1763737;81;20993;-79
2022/03/28 10:48:39;;;;;;;7.35;5.40;;;;;;;16.33;37.98;96962.44;1759326;80;20976;-79
2022/03/28 10:51:13;;;;;;;8.13;4.97;;;;;;;16.36;36.71;96951.53;1761789;81;21080;-79
2022/03/28 10:53:46;;;;;;;7.00;5.50;;;;;;;16.34;37.56;96943.07;1763544;81;21013;-79
2022/03/28 10:56:18;;;;;;;10.20;6.20;;;;;;;16.35;36.85;96941.25;1763712;81;21048;-79
2022/03/28 10:58:54;;;;;;;8.58;6.17;;;;;;;16.39;37.46;96939.83;1763612;81;21008;-79
2022/03/28 11:01:27;;;;;;;8.53;6.28;;;;;;;16.42;37.64;96929.72;1764850;81;20989;-79
2022/03/28 11:04:05;;;;;;;6.90;5.17;;;;;;;16.44;37.38;96928.23;1763376;81;20997;-79
2022/03/28 11:07:03;;;;;;;7.17;5.58;;;;;;;16.47;37.42;96930.45;1739117;82;21083;-79
2022/03/28 11:09:48;;;;;;;7.95;4.95;;;;;;;16.47;37.63;96921.27;1746146;81;21381;-79
2022/03/28 11:12:29;;;;;;;7.12;5.22;;;;;;;16.58;38.18;96923.74;1746525;81;21135;-79
2022/03/28 11:14:59;;;;;;;6.33;4.30;;;;;;;16.67;38.17;96915.98;1732760;81;20986;-79
2022/03/28 11:17:33;;;;;;;6.97;5.12;;;;;;;16.76;37.33;96917.38;1729055;82;21026;-79
2022/03/28 11:20:10;;;;;;;6.42;4.70;;;;;;;16.79;36.04;96911.20;1744619;81;21068;-79
2022/03/28 11:22:56;;;;;;;7.25;5.37;;;;;;;16.77;36.10;96911.92;1747987;81;20957;-79
2022/03/28 11:25:51;;;;;;;7.47;5.47;;;;;;;16.73;36.55;96901.52;1748112;81;20980;-79
2022/03/28 11:28:25;;;;;;;7.28;4.65;;;;;;;16.72;36.93;96897.29;1748036;82;21096;-79
2022/03/28 11:31:05;;;;;;;6.90;4.37;;;;;;;16.78;35.93;96889.91;1747941;82;21032;-79
2022/03/28 11:33:41;;;;;;;8.60;5.62;;;;;;;16.79;36.94;96885.47;1748035;82;21120;-79
2022/03/28 11:36:12;;;;;;;7.22;5.35;;;;;;;16.89;37.27;96883.70;1748093;81;21009;-79
2022/03/28 11:38:45;;;;;;;5.60;4.73;;;;;;;17.01;37.41;96887.28;1748236;81;20964;-79
2022/03/28 11:41:12;;;;;;;8.10;5.03;;;;;;;17.12;37.44;96877.95;1762769;81;21865;-79
2022/03/28 11:43:41;;;;;;;6.70;4.90;;;;;;;17.16;36.57;96870.74;1747971;81;21419;-79
2022/03/28 11:46:17;;;;;;;6.47;4.80;;;;;;;17.14;35.95;96866.72;1748266;80;21342;-79